sensor_id;sensor_type;location;lat;lon;timestamp;pressure;altitude;pressure_sealevel;temperature;humidity
48964;BME280;34776;48.180;16.420;2022-12-24T00:02:25;99035.94;;;7.51;100.00
48964;BME280;34776;48.180;16.420;2022-12-24T00:04:51;99025.34;;;7.51;100.00
48964;BME280;34776;48.180;16.420;2022-12-24T00:07:16;99032.75;;;7.62;100.00
48964;BME280;34776;48.180;16.420;2022-12-24T00:09:42;99026.28;;;7.68;100.00
48964;BME280;34776;48.180;16.420;2022-12-24T00:12:07;99040.91;;;7.75;100.00
48964;BME280;34776;48.180;16.420;2022-12-24T00:14:33;99049.44;;;7.80;100.00
48964;BME280;34776;48.180;16.420;2022-12-24T00:16:58;99037.69;;;7.86;100.00
48964;BME280;34776;48.180;16.420;2022-12-24T00:19:24;99028.16;;;7.99;100.00
48964;BME280;34776;48.180;16.420;2022-12-24T00:21:49;99035.06;;;8.19;100.00
48964;BME280;34776;48.180;16.420;2022-12-24T00:24:14;99035.13;;;8.33;100.00
48964;BME280;34776;48.180;16.420;2022-12-24T00:26:40;99044.84;;;8.50;100.00
48964;BME280;34776;48.180;16.420;2022-12-24T00:29:05;99048.59;;;8.78;100.00
48964;BME280;34776;48.180;16.420;2022-12-24T00:31:31;99050.59;;;9.05;100.00
48964;BME280;34776;48.180;16.420;2022-12-24T00:33:56;99047.66;;;9.25;100.00
48964;BME280;34776;48.180;16.420;2022-12-24T00:36:22;99052.47;;;9.34;100.00
48964;BME280;34776;48.180;16.420;2022-12-24T00:38:47;99057.28;;;9.42;100.00
48964;BME280;34776;48.180;16.420;2022-12-24T00:41:13;99064.03;;;9.48;100.00
48964;BME280;34776;48.180;16.420;2022-12-24T00:46:16;99077.63;;;9.72;100.00
48964;BME280;34776;48.180;16.420;2022-12-24T00:48:42;99078.78;;;9.82;100.00
48964;BME280;34776;48.180;16.420;2022-12-24T00:51:07;99076.53;;;9.90;100.00
48964;BME280;34776;48.180;16.420;2022-12-24T00:53:32;99081.94;;;10.03;100.00
48964;BME280;34776;48.180;16.420;2022-12-24T00:55:58;99079.69;;;10.11;100.00
48964;BME280;34776;48.180;16.420;2022-12-24T00:58:23;99090.78;;;10.18;100.00
48964;BME280;34776;48.180;16.420;2022-12-24T01:00:49;99092.88;;;10.27;100.00
48964;BME280;34776;48.180;16.420;2022-12-24T01:03:14;99091.41;;;10.38;100.00
48964;BME280;34776;48.180;16.420;2022-12-24T01:05:39;99093.63;;;10.58;100.00
48964;BME280;34776;48.180;16.420;2022-12-24T01:08:05;99086.63;;;10.71;100.00
48964;BME280;34776;48.180;16.420;2022-12-24T01:10:30;99082.53;;;10.80;100.00
48964;BME280;34776;48.180;16.420;2022-12-24T01:12:56;99084.69;;;10.88;100.00
48964;BME280;34776;48.180;16.420;2022-12-24T01:15:21;99084.28;;;10.94;100.00
48964;BME280;34776;48.180;16.420;2022-12-24T01:17:46;99085.44;;;10.90;100.00
48964;BME280;34776;48.180;16.420;2022-12-24T01:20:14;99077.88;;;10.84;100.00
48964;BME280;34776;48.180;16.420;2022-12-24T01:22:40;99090.66;;;10.91;100.00
48964;BME280;34776;48.180;16.420;2022-12-24T01:25:06;99097.06;;;11.02;100.00
48964;BME280;34776;48.180;16.420;2022-12-24T01:27:31;99103.63;;;10.96;100.00
48964;BME280;34776;48.180;16.420;2022-12-24T01:29:57;99089.34;;;10.84;100.00
48964;BME280;34776;48.180;16.420;2022-12-24T01:32:22;99094.19;;;10.77;100.00
48964;BME280;34776;48.180;16.420;2022-12-24T01:34:48;99096.28;;;10.72;100.00
48964;BME280;34776;48.180;16.420;2022-12-24T01:37:13;99081.19;;;10.73;100.00
48964;BME280;34776;48.180;16.420;2022-12-24T01:39:39;99071.22;;;10.76;100.00
48964;BME280;34776;48.180;16.420;2022-12-24T01:42:17;99066.66;;;10.79;100.00
48964;BME280;34776;48.180;16.420;2022-12-24T01:45:40;99065.34;;;10.86;100.00
48964;BME280;34776;48.180;16.420;2022-12-24T01:50:58;99042.25;;;11.13;100.00
48964;BME280;34776;48.180;16.420;2022-12-24T01:53:25;99059.31;;;11.24;100.00
48964;BME280;34776;48.180;16.420;2022-12-24T01:55:51;99062.72;;;11.26;100.00
48964;BME280;34776;48.180;16.420;2022-12-24T01:58:17;99074.31;;;11.25;100.00
48964;BME280;34776;48.180;16.420;2022-12-24T02:00:44;99087.00;;;11.34;99.72
48964;BME280;34776;48.180;16.420;2022-12-24T02:03:09;99095.53;;;11.39;99.12
48964;BME280;34776;48.180;16.420;2022-12-24T02:05:46;99097.03;;;11.43;100.00
48964;BME280;34776;48.180;16.420;2022-12-24T02:08:12;99099.88;;;11.40;100.00
48964;BME280;34776;48.180;16.420;2022-12-24T02:10:38;99108.16;;;11.35;100.00
48964;BME280;34776;48.180;16.420;2022-12-24T02:13:04;99093.19;;;11.34;100.00
48964;BME280;34776;48.180;16.420;2022-12-24T02:15:38;99094.25;;;11.32;100.00
48964;BME280;34776;48.180;16.420;2022-12-24T02:18:33;99095.84;;;11.34;100.00
48964;BME280;34776;48.180;16.420;2022-12-24T02:21:21;99091.91;;;11.40;100.00
48964;BME280;34776;48.180;16.420;2022-12-24T02:29:49;99093.78;;;11.65;100.00
48964;BME280;34776;48.180;16.420;2022-12-24T02:32:46;99077.53;;;11.70;100.00
48964;BME280;34776;48.180;16.420;2022-12-24T02:35:28;99071.03;;;11.74;100.00
48964;BME280;34776;48.180;16.420;2022-12-24T02:38:33;99062.63;;;11.80;99.18
48964;BME280;34776;48.180;16.420;2022-12-24T02:41:02;99061.19;;;11.89;98.82
48964;BME280;34776;48.180;16.420;2022-12-24T02:43:35;99069.03;;;11.90;98.09
48964;BME280;34776;48.180;16.420;2022-12-24T02:46:06;99065.44;;;11.91;97.62
48964;BME280;34776;48.180;16.420;2022-12-24T02:48:34;99063.06;;;11.87;98.03
48964;BME280;34776;48.180;16.420;2022-12-24T02:51:05;99061.66;;;11.81;95.33
48964;BME280;34776;48.180;16.420;2022-12-24T02:53:31;99075.34;;;11.89;95.92
48964;BME280;34776;48.180;16.420;2022-12-24T02:59:05;99085.28;;;11.73;96.81
48964;BME280;34776;48.180;16.420;2022-12-24T03:01:53;99098.91;;;11.68;97.03
48964;BME280;34776;48.180;16.420;2022-12-24T03:04:58;99094.44;;;11.69;96.86
48964;BME280;34776;48.180;16.420;2022-12-24T03:10:24;99082.28;;;11.65;96.72
48964;BME280;34776;48.180;16.420;2022-12-24T03:12:53;99090.50;;;11.62;96.70
48964;BME280;34776;48.180;16.420;2022-12-24T03:15:22;99111.97;;;11.58;96.80
48964;BME280;34776;48.180;16.420;2022-12-24T03:17:49;99110.28;;;11.57;96.44
48964;BME280;34776;48.180;16.420;2022-12-24T03:20:22;99114.63;;;11.58;96.79
48964;BME280;34776;48.180;16.420;2022-12-24T03:22:49;99122.41;;;11.62;96.23
48964;BME280;34776;48.180;16.420;2022-12-24T03:25:15;99131.34;;;11.61;96.09
48964;BME280;34776;48.180;16.420;2022-12-24T03:27:41;99119.94;;;11.58;95.98
48964;BME280;34776;48.180;16.420;2022-12-24T03:30:12;99121.75;;;11.58;96.13
48964;BME280;34776;48.180;16.420;2022-12-24T03:32:38;99125.50;;;11.55;94.49
48964;BME280;34776;48.180;16.420;2022-12-24T03:35:05;99130.59;;;11.58;94.94
48964;BME280;34776;48.180;16.420;2022-12-24T03:37:31;99130.81;;;11.55;95.02
48964;BME280;34776;48.180;16.420;2022-12-24T03:39:56;99138.22;;;11.50;95.40
48964;BME280;34776;48.180;16.420;2022-12-24T03:42:21;99135.97;;;11.44;94.91
48964;BME280;34776;48.180;16.420;2022-12-24T03:44:47;99143.19;;;11.42;94.08
48964;BME280;34776;48.180;16.420;2022-12-24T03:47:12;99157.91;;;11.48;93.98
48964;BME280;34776;48.180;16.420;2022-12-24T03:49:38;99156.09;;;11.48;94.21
48964;BME280;34776;48.180;16.420;2022-12-24T03:52:03;99140.34;;;11.45;94.42
48964;BME280;34776;48.180;16.420;2022-12-24T03:54:29;99145.97;;;11.41;94.17
48964;BME280;34776;48.180;16.420;2022-12-24T03:56:54;99159.38;;;11.39;92.92
48964;BME280;34776;48.180;16.420;2022-12-24T03:59:19;99161.63;;;11.45;92.99
48964;BME280;34776;48.180;16.420;2022-12-24T04:01:45;99151.94;;;11.44;92.88
48964;BME280;34776;48.180;16.420;2022-12-24T04:04:10;99169.22;;;11.51;92.12
48964;BME280;34776;48.180;16.420;2022-12-24T04:06:36;99167.31;;;11.53;92.09
48964;BME280;34776;48.180;16.420;2022-12-24T04:09:01;99170.72;;;11.55;91.79
48964;BME280;34776;48.180;16.420;2022-12-24T04:11:29;99161.59;;;11.60;91.26
48964;BME280;34776;48.180;16.420;2022-12-24T04:13:55;99167.75;;;11.60;90.78
48964;BME280;34776;48.180;16.420;2022-12-24T04:16:20;99161.19;;;11.66;91.21
48964;BME280;34776;48.180;16.420;2022-12-24T04:18:46;99159.38;;;11.66;91.01
48964;BME280;34776;48.180;16.420;2022-12-24T04:21:11;99168.59;;;11.61;90.64
48964;BME280;34776;48.180;16.420;2022-12-24T04:23:38;99169.97;;;11.53;90.71
48964;BME280;34776;48.180;16.420;2022-12-24T04:26:05;99161.13;;;11.53;90.38
48964;BME280;34776;48.180;16.420;2022-12-24T04:28:32;99173.72;;;11.64;90.85
48964;BME280;34776;48.180;16.420;2022-12-24T04:31:02;99173.72;;;11.64;89.85
48964;BME280;34776;48.180;16.420;2022-12-24T04:33:29;99188.28;;;11.58;89.62
48964;BME280;34776;48.180;16.420;2022-12-24T04:35:58;99187.53;;;11.56;89.48
48964;BME280;34776;48.180;16.420;2022-12-24T04:38:24;99183.28;;;11.53;89.19
48964;BME280;34776;48.180;16.420;2022-12-24T04:41:06;99185.34;;;11.48;89.38
48964;BME280;34776;48.180;16.420;2022-12-24T04:43:32;99189.75;;;11.49;88.21
48964;BME280;34776;48.180;16.420;2022-12-24T04:46:05;99191.34;;;11.52;87.59
48964;BME280;34776;48.180;16.420;2022-12-24T04:48:31;99198.38;;;11.53;87.72
48964;BME280;34776;48.180;16.420;2022-12-24T04:51:00;99202.69;;;11.41;87.42
48964;BME280;34776;48.180;16.420;2022-12-24T04:53:25;99201.94;;;11.39;87.13
48964;BME280;34776;48.180;16.420;2022-12-24T04:55:50;99209.81;;;11.41;85.62
48964;BME280;34776;48.180;16.420;2022-12-24T04:58:16;99215.59;;;11.47;85.03
48964;BME280;34776;48.180;16.420;2022-12-24T05:00:41;99219.75;;;11.51;84.55
48964;BME280;34776;48.180;16.420;2022-12-24T05:03:07;99216.03;;;11.54;84.28
48964;BME280;34776;48.180;16.420;2022-12-24T05:05:32;99227.75;;;11.51;83.37
48964;BME280;34776;48.180;16.420;2022-12-24T05:07:57;99226.91;;;11.51;83.76
48964;BME280;34776;48.180;16.420;2022-12-24T05:10:23;99229.81;;;11.46;83.66
48964;BME280;34776;48.180;16.420;2022-12-24T05:12:48;99232.88;;;11.40;83.77
48964;BME280;34776;48.180;16.420;2022-12-24T05:15:13;99246.59;;;11.34;83.94
48964;BME280;34776;48.180;16.420;2022-12-24T05:17:39;99247.63;;;11.31;83.53
48964;BME280;34776;48.180;16.420;2022-12-24T05:20:05;99250.50;;;11.28;83.55
48964;BME280;34776;48.180;16.420;2022-12-24T05:22:31;99253.34;;;11.25;83.41
48964;BME280;34776;48.180;16.420;2022-12-24T05:25:15;99263.22;;;11.23;82.95
48964;BME280;34776;48.180;16.420;2022-12-24T05:27:59;99261.59;;;11.21;82.58
48964;BME280;34776;48.180;16.420;2022-12-24T05:30:24;99258.19;;;11.18;82.49
48964;BME280;34776;48.180;16.420;2022-12-24T05:32:50;99265.63;;;11.13;82.17
48964;BME280;34776;48.180;16.420;2022-12-24T05:35:15;99262.19;;;11.11;82.55
48964;BME280;34776;48.180;16.420;2022-12-24T05:37:40;99264.25;;;11.06;81.63
48964;BME280;34776;48.180;16.420;2022-12-24T05:40:06;99277.69;;;11.05;81.02
48964;BME280;34776;48.180;16.420;2022-12-24T05:42:32;99257.06;;;11.08;81.29
48964;BME280;34776;48.180;16.420;2022-12-24T05:44:57;99269.50;;;11.08;80.93
48964;BME280;34776;48.180;16.420;2022-12-24T05:47:22;99274.91;;;11.06;81.09
48964;BME280;34776;48.180;16.420;2022-12-24T05:49:48;99270.63;;;11.04;80.54
48964;BME280;34776;48.180;16.420;2022-12-24T05:52:13;99268.56;;;11.09;79.51
48964;BME280;34776;48.180;16.420;2022-12-24T05:54:38;99275.50;;;11.11;79.25
48964;BME280;34776;48.180;16.420;2022-12-24T05:57:04;99286.22;;;11.10;79.52
48964;BME280;34776;48.180;16.420;2022-12-24T05:59:29;99287.25;;;11.07;78.47
48964;BME280;34776;48.180;16.420;2022-12-24T06:01:55;99278.25;;;11.10;78.80
48964;BME280;34776;48.180;16.420;2022-12-24T06:04:20;99284.22;;;11.13;78.48
48964;BME280;34776;48.180;16.420;2022-12-24T06:06:46;99289.53;;;11.13;78.30
48964;BME280;34776;48.180;16.420;2022-12-24T06:09:11;99312.34;;;11.17;77.86
48964;BME280;34776;48.180;16.420;2022-12-24T06:11:36;99321.63;;;11.25;77.77
48964;BME280;34776;48.180;16.420;2022-12-24T06:14:02;99317.66;;;11.32;77.75
48964;BME280;34776;48.180;16.420;2022-12-24T06:16:27;99325.34;;;11.36;77.32
48964;BME280;34776;48.180;16.420;2022-12-24T06:18:53;99331.31;;;11.40;77.48
48964;BME280;34776;48.180;16.420;2022-12-24T06:21:18;99332.94;;;11.43;77.21
48964;BME280;34776;48.180;16.420;2022-12-24T06:23:44;99331.97;;;11.44;77.49
48964;BME280;34776;48.180;16.420;2022-12-24T06:26:12;99340.16;;;11.41;77.61
48964;BME280;34776;48.180;16.420;2022-12-24T06:28:38;99337.69;;;11.37;77.05
48964;BME280;34776;48.180;16.420;2022-12-24T06:31:05;99342.16;;;11.37;77.00
48964;BME280;34776;48.180;16.420;2022-12-24T06:33:32;99350.13;;;11.37;77.39
48964;BME280;34776;48.180;16.420;2022-12-24T06:35:58;99354.91;;;11.32;77.18
48964;BME280;34776;48.180;16.420;2022-12-24T06:38:23;99351.66;;;11.27;77.27
48964;BME280;34776;48.180;16.420;2022-12-24T06:40:49;99348.59;;;11.18;77.48
48964;BME280;34776;48.180;16.420;2022-12-24T06:43:14;99344.03;;;11.06;78.03
48964;BME280;34776;48.180;16.420;2022-12-24T06:45:44;99341.19;;;10.95;77.72
48964;BME280;34776;48.180;16.420;2022-12-24T06:48:10;99346.09;;;10.87;78.08
48964;BME280;34776;48.180;16.420;2022-12-24T06:50:36;99344.66;;;10.81;77.65
48964;BME280;34776;48.180;16.420;2022-12-24T06:53:01;99340.38;;;10.79;77.75
48964;BME280;34776;48.180;16.420;2022-12-24T06:55:27;99345.91;;;10.75;77.78
48964;BME280;34776;48.180;16.420;2022-12-24T06:57:52;99355.00;;;10.71;77.54
48964;BME280;34776;48.180;16.420;2022-12-24T07:00:18;99346.06;;;10.72;77.21
48964;BME280;34776;48.180;16.420;2022-12-24T07:02:45;99363.72;;;10.73;76.87
48964;BME280;34776;48.180;16.420;2022-12-24T07:05:12;99365.44;;;10.74;76.38
48964;BME280;34776;48.180;16.420;2022-12-24T07:07:40;99365.25;;;10.77;75.55
48964;BME280;34776;48.180;16.420;2022-12-24T07:10:07;99384.06;;;10.89;74.34
48964;BME280;34776;48.180;16.420;2022-12-24T07:12:33;99393.22;;;10.99;73.86
48964;BME280;34776;48.180;16.420;2022-12-24T07:14:58;99396.34;;;11.06;73.80
48964;BME280;34776;48.180;16.420;2022-12-24T07:17:24;99390.38;;;11.16;73.25
48964;BME280;34776;48.180;16.420;2022-12-24T07:19:49;99393.66;;;11.22;72.67
48964;BME280;34776;48.180;16.420;2022-12-24T07:22:14;99406.81;;;11.23;72.60
48964;BME280;34776;48.180;16.420;2022-12-24T07:24:40;99415.69;;;11.24;73.26
48964;BME280;34776;48.180;16.420;2022-12-24T07:27:05;99418.50;;;11.21;72.29
48964;BME280;34776;48.180;16.420;2022-12-24T07:29:31;99413.19;;;11.21;73.12
48964;BME280;34776;48.180;16.420;2022-12-24T07:31:56;99414.16;;;11.20;73.04
48964;BME280;34776;48.180;16.420;2022-12-24T07:34:21;99422.91;;;11.22;73.14
48964;BME280;34776;48.180;16.420;2022-12-24T07:36:47;99428.38;;;11.18;73.17
48964;BME280;34776;48.180;16.420;2022-12-24T07:39:12;99431.13;;;11.17;73.01
48964;BME280;34776;48.180;16.420;2022-12-24T07:41:38;99432.19;;;11.14;73.29
48964;BME280;34776;48.180;16.420;2022-12-24T07:44:03;99421.75;;;11.11;73.21
48964;BME280;34776;48.180;16.420;2022-12-24T07:46:29;99442.25;;;11.09;73.39
48964;BME280;34776;48.180;16.420;2022-12-24T07:48:54;99439.59;;;11.09;73.58
48964;BME280;34776;48.180;16.420;2022-12-24T07:51:19;99446.78;;;11.07;73.67
48964;BME280;34776;48.180;16.420;2022-12-24T07:53:45;99455.91;;;11.03;73.57
48964;BME280;34776;48.180;16.420;2022-12-24T07:56:15;99450.56;;;11.03;74.11
48964;BME280;34776;48.180;16.420;2022-12-24T07:58:41;99467.28;;;11.05;74.32
48964;BME280;34776;48.180;16.420;2022-12-24T08:01:06;99473.19;;;11.10;74.11
48964;BME280;34776;48.180;16.420;2022-12-24T08:03:32;99469.81;;;11.23;74.30
48964;BME280;34776;48.180;16.420;2022-12-24T08:05:57;99479.63;;;11.36;73.77
48964;BME280;34776;48.180;16.420;2022-12-24T08:08:23;99479.38;;;11.55;72.95
48964;BME280;34776;48.180;16.420;2022-12-24T08:10:49;99482.81;;;11.57;72.03
48964;BME280;34776;48.180;16.420;2022-12-24T08:13:15;99479.66;;;11.65;72.21
48964;BME280;34776;48.180;16.420;2022-12-24T08:15:41;99485.66;;;11.69;71.69
48964;BME280;34776;48.180;16.420;2022-12-24T08:18:07;99484.13;;;11.65;71.47
48964;BME280;34776;48.180;16.420;2022-12-24T08:20:33;99489.75;;;11.74;71.87
48964;BME280;34776;48.180;16.420;2022-12-24T08:22:58;99494.03;;;11.77;71.69
48964;BME280;34776;48.180;16.420;2022-12-24T08:25:23;99500.56;;;11.71;71.46
48964;BME280;34776;48.180;16.420;2022-12-24T08:27:49;99496.97;;;11.58;71.49
48964;BME280;34776;48.180;16.420;2022-12-24T08:30:14;99500.56;;;11.43;72.08
48964;BME280;34776;48.180;16.420;2022-12-24T08:32:40;99500.22;;;11.33;72.74
48964;BME280;34776;48.180;16.420;2022-12-24T08:35:06;99510.72;;;11.36;73.25
48964;BME280;34776;48.180;16.420;2022-12-24T08:37:31;99506.69;;;11.29;73.34
48964;BME280;34776;48.180;16.420;2022-12-24T08:39:57;99512.34;;;11.23;73.58
48964;BME280;34776;48.180;16.420;2022-12-24T08:42:22;99522.44;;;11.17;74.07
48964;BME280;34776;48.180;16.420;2022-12-24T08:44:47;99529.28;;;11.22;74.52
48964;BME280;34776;48.180;16.420;2022-12-24T08:47:13;99529.84;;;11.27;74.42
48964;BME280;34776;48.180;16.420;2022-12-24T08:49:38;99549.94;;;11.32;74.27
48964;BME280;34776;48.180;16.420;2022-12-24T08:52:04;99538.91;;;11.38;74.88
48964;BME280;34776;48.180;16.420;2022-12-24T08:54:29;99541.09;;;11.46;74.57
48964;BME280;34776;48.180;16.420;2022-12-24T08:56:55;99549.25;;;11.59;74.70
48964;BME280;34776;48.180;16.420;2022-12-24T08:59:20;99547.84;;;11.68;73.94
48964;BME280;34776;48.180;16.420;2022-12-24T09:01:45;99550.88;;;11.76;73.77
48964;BME280;34776;48.180;16.420;2022-12-24T09:04:11;99551.03;;;11.89;73.81
48964;BME280;34776;48.180;16.420;2022-12-24T09:06:36;99569.56;;;12.05;73.34
48964;BME280;34776;48.180;16.420;2022-12-24T09:09:03;99571.84;;;12.11;72.75
48964;BME280;34776;48.180;16.420;2022-12-24T09:11:29;99579.56;;;12.15;72.87
48964;BME280;34776;48.180;16.420;2022-12-24T09:13:54;99579.56;;;12.15;72.13
48964;BME280;34776;48.180;16.420;2022-12-24T09:16:20;99591.09;;;12.16;72.24
48964;BME280;34776;48.180;16.420;2022-12-24T09:18:45;99574.34;;;12.14;72.20
48964;BME280;34776;48.180;16.420;2022-12-24T09:21:13;99582.13;;;12.17;72.23
48964;BME280;34776;48.180;16.420;2022-12-24T09:23:39;99590.31;;;12.28;71.73
48964;BME280;34776;48.180;16.420;2022-12-24T09:26:11;99582.22;;;12.30;71.16
48964;BME280;34776;48.180;16.420;2022-12-24T09:28:38;99584.13;;;12.28;71.39
48964;BME280;34776;48.180;16.420;2022-12-24T09:31:04;99587.28;;;12.34;71.67
48964;BME280;34776;48.180;16.420;2022-12-24T09:33:33;99589.66;;;12.39;71.80
48964;BME280;34776;48.180;16.420;2022-12-24T09:35:59;99588.22;;;12.48;71.68
48964;BME280;34776;48.180;16.420;2022-12-24T09:38:24;99593.94;;;12.56;70.99
48964;BME280;34776;48.180;16.420;2022-12-24T09:40:51;99592.69;;;12.62;70.98
48964;BME280;34776;48.180;16.420;2022-12-24T09:43:23;99597.63;;;12.68;70.17
48964;BME280;34776;48.180;16.420;2022-12-24T09:48:22;99599.59;;;12.78;69.45
48964;BME280;34776;48.180;16.420;2022-12-24T09:51:01;99610.47;;;12.75;69.19
48964;BME280;34776;48.180;16.420;2022-12-24T09:53:54;99609.81;;;12.72;68.77
48964;BME280;34776;48.180;16.420;2022-12-24T09:56:32;99613.13;;;12.75;70.13
48964;BME280;34776;48.180;16.420;2022-12-24T09:59:03;99619.31;;;12.76;68.37
48964;BME280;34776;48.180;16.420;2022-12-24T10:01:31;99622.38;;;12.70;68.90
48964;BME280;34776;48.180;16.420;2022-12-24T10:04:01;99623.22;;;12.70;68.92
48964;BME280;34776;48.180;16.420;2022-12-24T10:09:37;99633.88;;;12.85;66.60
48964;BME280;34776;48.180;16.420;2022-12-24T10:12:17;99647.03;;;12.88;67.70
48964;BME280;34776;48.180;16.420;2022-12-24T10:17:47;99650.91;;;12.96;67.24
48964;BME280;34776;48.180;16.420;2022-12-24T10:20:35;99660.53;;;12.99;67.57
48964;BME280;34776;48.180;16.420;2022-12-24T10:25:48;99654.81;;;13.05;66.74
48964;BME280;34776;48.180;16.420;2022-12-24T10:28:22;99655.38;;;13.10;67.70
48964;BME280;34776;48.180;16.420;2022-12-24T10:30:53;99665.69;;;13.44;67.49
48964;BME280;34776;48.180;16.420;2022-12-24T10:33:29;99668.19;;;13.87;64.22
48964;BME280;34776;48.180;16.420;2022-12-24T10:35:57;99665.22;;;14.17;64.62
48964;BME280;34776;48.180;16.420;2022-12-24T10:38:22;99655.41;;;14.30;63.57
48964;BME280;34776;48.180;16.420;2022-12-24T10:40:53;99664.19;;;14.32;62.82
48964;BME280;34776;48.180;16.420;2022-12-24T10:43:25;99662.28;;;14.34;63.24
48964;BME280;34776;48.180;16.420;2022-12-24T10:45:55;99650.50;;;14.37;63.22
48964;BME280;34776;48.180;16.420;2022-12-24T10:48:31;99670.38;;;14.46;62.32
48964;BME280;34776;48.180;16.420;2022-12-24T10:51:05;99658.53;;;14.63;61.83
48964;BME280;34776;48.180;16.420;2022-12-24T10:54:06;99650.50;;;14.63;59.41
48964;BME280;34776;48.180;16.420;2022-12-24T10:56:43;99647.75;;;14.64;60.66
48964;BME280;34776;48.180;16.420;2022-12-24T10:59:30;99646.84;;;14.51;60.54
48964;BME280;34776;48.180;16.420;2022-12-24T11:01:59;99657.34;;;14.41;62.24
48964;BME280;34776;48.180;16.420;2022-12-24T11:04:30;99652.00;;;14.28;61.22
48964;BME280;34776;48.180;16.420;2022-12-24T11:07:04;99650.91;;;14.18;61.50
48964;BME280;34776;48.180;16.420;2022-12-24T11:09:33;99648.25;;;14.18;62.26
48964;BME280;34776;48.180;16.420;2022-12-24T11:12:03;99650.03;;;14.05;61.72
48964;BME280;34776;48.180;16.420;2022-12-24T11:14:38;99652.41;;;13.96;61.02
48964;BME280;34776;48.180;16.420;2022-12-24T11:17:04;99642.56;;;13.97;62.59
48964;BME280;34776;48.180;16.420;2022-12-24T11:19:32;99647.69;;;14.00;62.52
48964;BME280;34776;48.180;16.420;2022-12-24T11:22:07;99638.72;;;14.01;61.18
48964;BME280;34776;48.180;16.420;2022-12-24T11:24:42;99637.00;;;14.13;61.90
48964;BME280;34776;48.180;16.420;2022-12-24T11:27:45;99629.72;;;14.02;59.62
48964;BME280;34776;48.180;16.420;2022-12-24T11:32:40;99639.19;;;13.68;61.63
48964;BME280;34776;48.180;16.420;2022-12-24T11:35:17;99647.78;;;13.58;62.29
48964;BME280;34776;48.180;16.420;2022-12-24T11:37:43;99630.28;;;13.54;62.31
48964;BME280;34776;48.180;16.420;2022-12-24T11:40:20;99648.84;;;13.56;61.09
48964;BME280;34776;48.180;16.420;2022-12-24T11:42:47;99634.44;;;13.58;61.96
48964;BME280;34776;48.180;16.420;2022-12-24T11:45:21;99648.84;;;13.56;61.69
48964;BME280;34776;48.180;16.420;2022-12-24T11:47:48;99646.31;;;13.54;61.78
48964;BME280;34776;48.180;16.420;2022-12-24T11:50:31;99652.06;;;13.48;61.34
48964;BME280;34776;48.180;16.420;2022-12-24T12:00:40;99656.31;;;13.09;62.49
48964;BME280;34776;48.180;16.420;2022-12-24T12:03:22;99669.28;;;13.01;63.00
48964;BME280;34776;48.180;16.420;2022-12-24T12:05:50;99657.50;;;12.91;63.80
48964;BME280;34776;48.180;16.420;2022-12-24T12:08:19;99668.75;;;12.82;64.04
48964;BME280;34776;48.180;16.420;2022-12-24T12:10:47;99669.31;;;12.72;64.45
48964;BME280;34776;48.180;16.420;2022-12-24T12:13:21;99654.75;;;12.64;64.34
48964;BME280;34776;48.180;16.420;2022-12-24T12:16:03;99661.50;;;12.55;65.09
48964;BME280;34776;48.180;16.420;2022-12-24T12:18:41;99656.75;;;12.46;65.30
48964;BME280;34776;48.180;16.420;2022-12-24T12:21:18;99652.66;;;12.40;65.00
48964;BME280;34776;48.180;16.420;2022-12-24T12:23:54;99657.13;;;12.39;66.01
48964;BME280;34776;48.180;16.420;2022-12-24T12:26:27;99670.63;;;12.36;65.95
48964;BME280;34776;48.180;16.420;2022-12-24T12:31:48;99666.94;;;12.25;65.83
48964;BME280;34776;48.180;16.420;2022-12-24T12:39:15;99679.94;;;12.15;66.77
48964;BME280;34776;48.180;16.420;2022-12-24T12:44:42;99689.41;;;12.05;67.28
48964;BME280;34776;48.180;16.420;2022-12-24T12:57:59;99706.81;;;12.41;66.69
48964;BME280;34776;48.180;16.420;2022-12-24T13:00:27;99724.53;;;12.56;66.43
48964;BME280;34776;48.180;16.420;2022-12-24T13:06:11;99727.78;;;12.75;63.92
48964;BME280;34776;48.180;16.420;2022-12-24T13:14:10;99749.13;;;12.90;63.02
48964;BME280;34776;48.180;16.420;2022-12-24T13:22:34;99778.63;;;12.87;64.61
48964;BME280;34776;48.180;16.420;2022-12-24T13:25:00;99778.84;;;12.84;64.77
48964;BME280;34776;48.180;16.420;2022-12-24T13:27:30;99773.19;;;12.74;64.56
48964;BME280;34776;48.180;16.420;2022-12-24T13:29:58;99770.63;;;12.72;64.63
48964;BME280;34776;48.180;16.420;2022-12-24T13:37:22;99781.84;;;12.63;64.70
48964;BME280;34776;48.180;16.420;2022-12-24T13:47:56;99768.31;;;12.52;65.31
48964;BME280;34776;48.180;16.420;2022-12-24T13:50:35;99778.78;;;12.55;65.17
48964;BME280;34776;48.180;16.420;2022-12-24T13:53:03;99789.28;;;12.58;64.90
48964;BME280;34776;48.180;16.420;2022-12-24T13:55:30;99783.34;;;12.53;65.40
48964;BME280;34776;48.180;16.420;2022-12-24T13:58:01;99791.91;;;12.44;65.58
48964;BME280;34776;48.180;16.420;2022-12-24T14:00:43;99788.34;;;12.29;65.55
48964;BME280;34776;48.180;16.420;2022-12-24T14:03:21;99797.53;;;12.23;66.03
48964;BME280;34776;48.180;16.420;2022-12-24T14:05:55;99797.13;;;12.15;66.36
48964;BME280;34776;48.180;16.420;2022-12-24T14:11:10;99808.69;;;12.00;66.37
48964;BME280;34776;48.180;16.420;2022-12-24T14:16:04;99818.13;;;11.89;67.29
48964;BME280;34776;48.180;16.420;2022-12-24T14:18:36;99816.56;;;11.85;67.74
48964;BME280;34776;48.180;16.420;2022-12-24T14:21:03;99825.66;;;11.81;67.94
48964;BME280;34776;48.180;16.420;2022-12-24T14:23:35;99832.94;;;11.77;67.41
48964;BME280;34776;48.180;16.420;2022-12-24T14:26:11;99833.28;;;11.71;67.90
48964;BME280;34776;48.180;16.420;2022-12-24T14:28:45;99846.00;;;11.66;68.32
48964;BME280;34776;48.180;16.420;2022-12-24T14:31:15;99850.03;;;11.57;68.43